createdAt,value
2023-04-23T00:02:06.404Z,8.90
2023-04-23T00:04:36.638Z,5.45
2023-04-23T00:07:04.847Z,6.18
2023-04-23T00:09:32.892Z,9.93
2023-04-23T00:12:01.960Z,5.35
2023-04-23T00:14:29.017Z,6.90
2023-04-23T00:16:56.227Z,5.80
2023-04-23T00:19:22.936Z,6.70
2023-04-23T00:21:49.728Z,6.43
2023-04-23T00:24:16.544Z,6.82
2023-04-23T00:26:43.339Z,6.53
2023-04-23T00:29:10.248Z,6.05
2023-04-23T00:31:37.026Z,5.93
2023-04-23T00:34:04.037Z,6.55
2023-04-23T00:36:31.156Z,6.63
2023-04-23T00:38:57.981Z,9.55
2023-04-23T00:41:25.567Z,6.65
2023-04-23T00:43:53.187Z,7.78
2023-04-23T00:46:20.321Z,6.32
2023-04-23T00:48:47.647Z,6.18
2023-04-23T00:51:16.683Z,6.50
2023-04-23T00:53:47.368Z,6.70
2023-04-23T00:56:14.869Z,6.07
2023-04-23T00:58:41.945Z,7.32
2023-04-23T01:01:08.915Z,6.40
2023-04-23T01:03:37.548Z,6.63
2023-04-23T01:06:07.892Z,6.05
2023-04-23T01:08:36.216Z,5.35
2023-04-23T01:11:07.500Z,6.20
2023-04-23T01:13:34.682Z,6.32
2023-04-23T01:16:06.002Z,6.13
2023-04-23T01:18:32.728Z,5.88
2023-04-23T01:20:59.491Z,6.63
2023-04-23T01:23:27.250Z,6.88
2023-04-23T01:25:55.216Z,6.07
2023-04-23T01:28:22.097Z,6.18
2023-04-23T01:30:49.815Z,6.43
2023-04-23T01:33:17.470Z,5.70
2023-04-23T01:35:44.868Z,8.38
2023-04-23T01:38:14.241Z,7.85
2023-04-23T01:40:40.849Z,7.30
2023-04-23T01:43:09.205Z,6.18
2023-04-23T01:45:36.243Z,7.75
2023-04-23T01:48:03.133Z,8.10
2023-04-23T01:50:30.150Z,7.03
2023-04-23T01:52:57.186Z,8.45
2023-04-23T01:55:23.936Z,6.25
2023-04-23T01:57:51.770Z,6.88
2023-04-23T02:00:19.043Z,7.90
2023-04-23T02:02:45.986Z,6.90
2023-04-23T02:05:16.523Z,6.82
2023-04-23T02:07:44.079Z,7.50
2023-04-23T02:10:11.327Z,6.68
2023-04-23T02:12:38.595Z,6.68
2023-04-23T02:15:07.792Z,6.90
2023-04-23T02:17:35.515Z,9.18
2023-04-23T02:20:02.813Z,7.20
2023-04-23T02:22:29.826Z,7.45
2023-04-23T02:24:56.473Z,6.50
2023-04-23T02:27:23.263Z,6.43
2023-04-23T02:29:50.265Z,6.60
2023-04-23T02:32:16.873Z,7.70
2023-04-23T02:34:43.706Z,7.82
2023-04-23T02:37:10.600Z,7.10
2023-04-23T02:39:39.511Z,8.23
2023-04-23T02:42:06.762Z,8.63
2023-04-23T02:44:33.589Z,8.75
2023-04-23T02:47:01.037Z,8.43
2023-04-23T02:49:27.896Z,6.95
2023-04-23T02:51:54.568Z,7.88
2023-04-23T02:54:21.266Z,7.10
2023-04-23T02:56:48.133Z,7.88
2023-04-23T02:59:15.199Z,7.80
2023-04-23T03:01:41.888Z,6.65
2023-04-23T03:04:09.099Z,6.93
2023-04-23T03:06:36.977Z,9.55
2023-04-23T03:09:04.919Z,8.52
2023-04-23T03:11:32.044Z,9.10
2023-04-23T03:13:59.117Z,9.88
2023-04-23T03:16:28.398Z,7.88
2023-04-23T03:18:55.799Z,7.88
2023-04-23T03:21:22.761Z,10.55
2023-04-23T03:23:49.436Z,7.53
2023-04-23T03:26:16.213Z,7.75
2023-04-23T03:28:43.119Z,7.65
2023-04-23T03:31:09.746Z,7.25
2023-04-23T03:33:36.736Z,9.80
2023-04-23T03:36:07.445Z,7.28
2023-04-23T03:38:34.066Z,7.13
2023-04-23T03:41:00.863Z,6.95
2023-04-23T03:43:27.910Z,6.95
2023-04-23T03:45:54.780Z,7.00
2023-04-23T03:48:22.113Z,7.05
2023-04-23T03:50:48.919Z,7.18
2023-04-23T03:53:17.712Z,8.02
2023-04-23T03:55:44.974Z,6.85
2023-04-23T03:58:11.889Z,7.63
2023-04-23T04:00:38.484Z,6.57
2023-04-23T04:03:05.546Z,6.68
2023-04-23T04:05:32.519Z,7.43
2023-04-23T04:07:59.132Z,6.10
2023-04-23T04:10:26.117Z,6.38
2023-04-23T04:12:52.957Z,6.65
2023-04-23T04:15:20.806Z,7.07
2023-04-23T04:17:48.067Z,8.75
2023-04-23T04:20:15.103Z,8.05
2023-04-23T04:22:41.798Z,8.50
2023-04-23T04:25:08.739Z,8.55
2023-04-23T04:27:35.900Z,8.10
2023-04-23T04:30:03.137Z,8.02
2023-04-23T04:32:30.020Z,7.75
2023-04-23T04:34:57.421Z,7.78
2023-04-23T04:37:24.491Z,8.57
2023-04-23T04:39:52.844Z,7.82
2023-04-23T04:42:20.325Z,9.73
2023-04-23T04:44:46.974Z,11.15
2023-04-23T04:47:13.937Z,11.23
2023-04-23T04:49:40.666Z,10.27
2023-04-23T04:52:07.480Z,9.60
2023-04-23T04:54:34.218Z,9.80
2023-04-23T04:57:02.432Z,10.27
2023-04-23T04:59:29.057Z,10.07
2023-04-23T05:01:56.787Z,8.80
2023-04-23T05:04:23.831Z,8.55
2023-04-23T05:06:50.497Z,8.90
2023-04-23T05:09:17.359Z,8.20
2023-04-23T05:11:44.253Z,10.90
2023-04-23T05:14:10.860Z,11.45
2023-04-23T05:16:37.709Z,11.65
2023-04-23T05:19:04.642Z,10.35
2023-04-23T05:21:31.599Z,10.70
2023-04-23T05:23:58.377Z,11.00
2023-04-23T05:26:25.213Z,12.43
2023-04-23T05:28:51.848Z,12.18
2023-04-23T05:31:18.632Z,13.82
2023-04-23T05:33:50.405Z,14.88
2023-04-23T05:36:18.493Z,13.23
2023-04-23T05:38:45.215Z,15.35
2023-04-23T05:41:12.327Z,15.30
2023-04-23T05:43:39.010Z,13.43
2023-04-23T05:46:07.798Z,12.85
2023-04-23T05:48:34.884Z,12.02
2023-04-23T05:51:05.568Z,14.45
2023-04-23T05:53:41.783Z,11.27
2023-04-23T05:56:12.891Z,10.20
2023-04-23T05:58:39.813Z,11.30
2023-04-23T06:01:06.679Z,10.13
2023-04-23T06:03:33.532Z,10.25
2023-04-23T06:06:00.427Z,9.45
2023-04-23T06:08:27.193Z,7.90
2023-04-23T06:10:55.868Z,9.88
2023-04-23T06:13:22.554Z,7.63
2023-04-23T06:15:49.258Z,10.20
2023-04-23T06:18:16.231Z,8.80
2023-04-23T06:20:42.835Z,8.93
2023-04-23T06:23:09.581Z,8.73
2023-04-23T06:25:36.273Z,7.70
2023-04-23T06:28:02.858Z,7.57
2023-04-23T06:30:29.587Z,5.43
2023-04-23T06:32:56.701Z,5.60
2023-04-23T06:35:23.381Z,4.80
2023-04-23T06:37:50.276Z,7.68
2023-04-23T06:40:17.096Z,6.57
2023-04-23T06:42:45.453Z,5.85
2023-04-23T06:45:12.372Z,11.20
2023-04-23T06:47:39.161Z,5.68
2023-04-23T06:50:06.588Z,7.18
2023-04-23T06:52:33.409Z,6.00
2023-04-23T06:55:00.135Z,5.53
2023-04-23T06:57:26.739Z,6.45
2023-04-23T06:59:53.489Z,7.22
2023-04-23T07:02:20.192Z,5.65
2023-04-23T07:04:47.996Z,7.25
2023-04-23T07:07:15.026Z,7.30
2023-04-23T07:09:41.716Z,5.97
2023-04-23T07:12:08.394Z,8.40
2023-04-23T07:14:35.265Z,5.43
2023-04-23T07:17:01.941Z,6.53
2023-04-23T07:19:28.842Z,7.22
2023-04-23T07:21:55.712Z,6.22
2023-04-23T07:24:22.365Z,21.63
2023-04-23T07:26:48.972Z,6.30
2023-04-23T07:29:16.232Z,5.85
2023-04-23T07:31:43.149Z,5.00
2023-04-23T07:34:09.996Z,6.55
2023-04-23T07:36:37.464Z,5.15
2023-04-23T07:39:05.669Z,6.25
2023-04-23T07:41:32.961Z,5.13
2023-04-23T07:43:59.879Z,5.60
2023-04-23T07:46:26.631Z,4.93
2023-04-23T07:48:53.584Z,6.30
2023-04-23T07:51:22.582Z,4.85
2023-04-23T07:53:55.150Z,4.55
2023-04-23T07:56:22.518Z,5.28
2023-04-23T07:58:49.419Z,4.88
2023-04-23T08:01:16.486Z,5.75
2023-04-23T08:03:43.334Z,4.60
2023-04-23T08:06:13.368Z,6.03
2023-04-23T08:08:40.423Z,5.28
2023-04-23T08:11:07.699Z,5.05
2023-04-23T08:13:34.721Z,5.28
2023-04-23T08:16:01.705Z,15.10
2023-04-23T08:18:28.547Z,9.15
2023-04-23T08:20:56.682Z,4.70
2023-04-23T08:23:23.505Z,4.43
2023-04-23T08:25:50.556Z,4.28
2023-04-23T08:28:18.851Z,4.28
2023-04-23T08:30:46.370Z,5.35
2023-04-23T08:33:13.155Z,5.18
2023-04-23T08:35:39.942Z,3.80
2023-04-23T08:38:06.766Z,6.38
2023-04-23T08:40:37.647Z,5.70
2023-04-23T08:43:14.405Z,4.40
2023-04-23T08:45:41.739Z,6.60
2023-04-23T08:48:10.217Z,5.10
2023-04-23T08:50:39.070Z,5.22
2023-04-23T08:53:14.454Z,4.53
2023-04-23T08:55:41.612Z,4.00
2023-04-23T08:58:08.474Z,5.63
2023-04-23T09:00:35.921Z,3.72
2023-04-23T09:03:03.161Z,6.25
2023-04-23T09:05:31.360Z,3.63
2023-04-23T09:07:59.209Z,5.70
2023-04-23T09:10:26.491Z,6.20
2023-04-23T09:12:53.258Z,4.15
2023-04-23T09:15:20.046Z,3.92
2023-04-23T09:17:47.669Z,3.30
2023-04-23T09:20:15.468Z,3.08
2023-04-23T09:22:45.970Z,3.47
2023-04-23T09:25:21.631Z,3.45
2023-04-23T09:27:50.357Z,3.20
2023-04-23T09:30:18.136Z,3.45
2023-04-23T09:32:46.873Z,3.05
2023-04-23T09:35:16.242Z,3.15
2023-04-23T09:37:48.801Z,4.70
2023-04-23T09:40:18.056Z,3.22
2023-04-23T09:42:50.193Z,3.45
2023-04-23T09:45:17.739Z,3.22
2023-04-23T09:47:52.354Z,3.35
2023-04-23T09:50:20.434Z,3.10
2023-04-23T09:52:55.744Z,3.72
2023-04-23T09:55:38.877Z,3.08
2023-04-23T09:58:11.487Z,3.92
2023-04-23T10:00:39.762Z,3.92
2023-04-23T10:03:08.987Z,3.55
2023-04-23T10:08:14.082Z,3.65
2023-04-23T10:10:56.891Z,2.58
2023-04-23T10:13:28.839Z,2.72
2023-04-23T10:16:04.484Z,3.58
2023-04-23T10:18:38.831Z,3.58
2023-04-23T10:21:06.378Z,3.40
2023-04-23T10:23:36.177Z,3.85
2023-04-23T10:26:05.046Z,3.42
2023-04-23T10:28:34.017Z,3.53
2023-04-23T10:31:01.388Z,3.40
2023-04-23T10:33:37.472Z,4.88
2023-04-23T10:36:09.924Z,3.25
2023-04-23T10:38:45.394Z,3.40
2023-04-23T10:41:23.878Z,3.75
2023-04-23T10:43:53.703Z,3.50
2023-04-23T10:46:34.836Z,2.60
2023-04-23T10:49:17.033Z,3.35
2023-04-23T10:56:46.456Z,3.38
2023-04-23T10:59:21.534Z,3.10
2023-04-23T11:01:50.731Z,4.50
2023-04-23T11:04:24.644Z,3.35
2023-04-23T11:06:55.343Z,4.50
2023-04-23T11:09:35.081Z,3.42
2023-04-23T11:12:02.639Z,3.90
2023-04-23T11:14:43.297Z,3.15
2023-04-23T11:17:14.727Z,3.47
2023-04-23T11:19:43.316Z,3.75
2023-04-23T11:22:20.835Z,3.67
2023-04-23T11:24:49.628Z,5.78
2023-04-23T11:27:18.768Z,3.90
2023-04-23T11:29:47.413Z,3.05
2023-04-23T11:32:17.032Z,2.67
2023-04-23T11:34:45.832Z,5.05
2023-04-23T11:37:17.481Z,3.53
2023-04-23T11:39:45.976Z,3.03
2023-04-23T11:42:14.217Z,2.60
2023-04-23T11:44:42.186Z,2.40
2023-04-23T11:47:12.928Z,3.45
2023-04-23T11:49:41.277Z,4.78
2023-04-23T11:52:09.084Z,3.85
2023-04-23T11:54:36.291Z,3.03
2023-04-23T11:57:06.020Z,3.20
2023-04-23T11:59:32.976Z,2.65
2023-04-23T12:02:00.674Z,4.65
2023-04-23T12:04:29.636Z,3.88
2023-04-23T12:06:57.790Z,10.40
2023-04-23T12:09:26.459Z,2.22
2023-04-23T12:11:53.649Z,3.67
2023-04-23T12:14:29.114Z,2.85
2023-04-23T12:16:57.110Z,3.08
2023-04-23T12:19:29.571Z,3.55
2023-04-23T12:22:02.197Z,3.53
2023-04-23T12:24:31.209Z,4.32
2023-04-23T12:27:01.016Z,3.58
2023-04-23T12:29:30.119Z,4.53
2023-04-23T12:31:59.258Z,2.78
2023-04-23T12:34:25.949Z,2.95
2023-04-23T12:36:56.283Z,3.67
2023-04-23T12:39:36.179Z,2.85
2023-04-23T12:42:08.240Z,4.20
2023-04-23T12:44:36.414Z,2.53
2023-04-23T12:47:08.699Z,3.78
2023-04-23T12:49:36.776Z,3.08
2023-04-23T12:52:04.918Z,2.65
2023-04-23T12:54:34.122Z,3.28
2023-04-23T12:57:04.266Z,2.58
2023-04-23T12:59:32.155Z,2.53
2023-04-23T13:02:02.999Z,4.72
2023-04-23T13:04:35.630Z,2.95
2023-04-23T13:07:02.742Z,3.80
2023-04-23T13:09:30.485Z,2.60
2023-04-23T13:11:57.453Z,4.25
2023-04-23T13:14:42.833Z,3.33
2023-04-23T13:17:09.633Z,3.20
2023-04-23T13:19:39.633Z,3.00
2023-04-23T13:22:07.294Z,3.30
2023-04-23T13:24:34.243Z,3.55
2023-04-23T13:27:01.857Z,3.90
2023-04-23T13:29:28.797Z,2.80
2023-04-23T13:31:56.503Z,3.60
2023-04-23T13:34:23.151Z,3.65
2023-04-23T13:36:51.082Z,3.80
2023-04-23T13:39:18.432Z,3.20
2023-04-23T13:41:46.574Z,3.33
2023-04-23T13:44:16.590Z,3.22
2023-04-23T13:46:43.572Z,4.13
2023-04-23T13:49:10.619Z,3.45
2023-04-23T13:51:37.436Z,3.33
2023-04-23T13:54:04.409Z,4.20
2023-04-23T13:56:31.697Z,3.65
2023-04-23T13:59:18.994Z,4.13
2023-04-23T14:01:50.200Z,5.78
2023-04-23T14:04:18.627Z,2.97
2023-04-23T14:06:45.795Z,2.88
2023-04-23T14:09:12.747Z,3.97
2023-04-23T14:11:40.697Z,3.08
2023-04-23T14:14:08.032Z,4.55
2023-04-23T14:16:35.570Z,3.70
2023-04-23T14:19:02.717Z,3.63
2023-04-23T14:21:33.742Z,2.83
2023-04-23T14:24:24.564Z,3.20
2023-04-23T14:26:51.209Z,3.10
2023-04-23T14:29:40.930Z,4.80
2023-04-23T14:32:08.050Z,2.75
2023-04-23T14:34:38.121Z,2.92
2023-04-23T14:37:04.725Z,6.07
2023-04-23T14:39:31.517Z,3.40
2023-04-23T14:41:58.317Z,4.30
2023-04-23T14:44:27.026Z,4.80
2023-04-23T14:46:53.910Z,4.57
2023-04-23T14:49:21.322Z,6.43
2023-04-23T14:51:50.957Z,3.20
2023-04-23T14:54:17.801Z,3.70
2023-04-23T14:56:44.626Z,3.92
2023-04-23T14:59:11.602Z,4.28
2023-04-23T15:01:38.500Z,4.32
2023-04-23T15:04:05.530Z,3.60
2023-04-23T15:06:33.811Z,4.82
2023-04-23T15:09:00.462Z,4.68
2023-04-23T15:11:27.100Z,7.35
2023-04-23T15:14:06.431Z,4.38
2023-04-23T15:16:48.365Z,4.80
2023-04-23T15:19:20.695Z,4.28
2023-04-23T15:21:47.739Z,5.30
2023-04-23T15:24:15.408Z,5.90
2023-04-23T15:26:43.089Z,5.45
2023-04-23T15:29:10.314Z,7.35
2023-04-23T15:31:40.157Z,7.22
2023-04-23T15:34:09.422Z,7.88
2023-04-23T15:36:37.553Z,3.13
2023-04-23T15:39:04.704Z,2.88
2023-04-23T15:41:34.028Z,3.78
2023-04-23T15:44:01.879Z,2.80
2023-04-23T15:46:28.611Z,3.20
2023-04-23T15:48:55.338Z,2.78
2023-04-23T15:51:22.300Z,4.47
2023-04-23T15:53:48.893Z,3.08
2023-04-23T15:56:15.908Z,4.03
2023-04-23T15:58:42.738Z,3.28
2023-04-23T16:01:09.849Z,3.15
2023-04-23T16:03:37.278Z,3.78
2023-04-23T16:06:05.128Z,4.45
2023-04-23T16:08:32.712Z,4.00
2023-04-23T16:10:59.595Z,3.75
2023-04-23T16:13:28.430Z,10.70
2023-04-23T16:15:55.339Z,4.05
2023-04-23T16:18:22.258Z,4.47
2023-04-23T16:20:48.969Z,4.03
2023-04-23T16:23:15.636Z,4.15
2023-04-23T16:25:43.042Z,4.50
2023-04-23T16:28:09.901Z,4.28
2023-04-23T16:30:36.589Z,4.70
2023-04-23T16:33:03.432Z,4.40
2023-04-23T16:35:30.428Z,4.28
2023-04-23T16:37:57.114Z,4.13
2023-04-23T16:40:23.954Z,4.35
2023-04-23T16:42:50.766Z,3.75
2023-04-23T16:45:18.318Z,3.40
2023-04-23T16:47:45.137Z,4.53
2023-04-23T16:50:12.071Z,4.40
2023-04-23T16:52:38.962Z,4.40
2023-04-23T16:55:06.171Z,6.97
2023-04-23T16:57:33.398Z,4.20
2023-04-23T17:00:00.265Z,3.53
2023-04-23T17:02:27.171Z,3.70
2023-04-23T17:04:54.763Z,3.83
2023-04-23T17:07:21.419Z,4.25
2023-04-23T17:09:48.383Z,4.80
2023-04-23T17:12:15.162Z,3.70
2023-04-23T17:14:42.012Z,3.50
2023-04-23T17:17:09.280Z,6.43
2023-04-23T17:19:36.610Z,3.58
2023-04-23T17:22:03.593Z,3.25
2023-04-23T17:24:30.469Z,4.95
2023-04-23T17:26:57.802Z,3.17
2023-04-23T17:29:24.781Z,2.92
2023-04-23T17:31:51.945Z,3.15
2023-04-23T17:34:18.784Z,5.07
2023-04-23T17:36:45.465Z,3.25
2023-04-23T17:39:12.293Z,3.95
2023-04-23T17:41:39.081Z,5.05
2023-04-23T17:44:05.784Z,5.38
2023-04-23T17:46:34.610Z,5.13
2023-04-23T17:49:01.678Z,5.30
2023-04-23T17:51:28.579Z,4.18
2023-04-23T17:53:55.434Z,3.35
2023-04-23T17:56:22.216Z,4.15
2023-04-23T17:58:48.877Z,3.53
2023-04-23T18:01:17.915Z,3.60
2023-04-23T18:03:45.145Z,3.40
2023-04-23T18:06:12.023Z,3.50
2023-04-23T18:08:40.584Z,3.97
2023-04-23T18:11:09.596Z,3.65
2023-04-23T18:13:36.645Z,5.63
2023-04-23T18:16:03.586Z,5.10
2023-04-23T18:18:30.410Z,6.18
2023-04-23T18:20:57.068Z,6.50
2023-04-23T18:23:24.143Z,5.18
2023-04-23T18:25:50.894Z,5.95
2023-04-23T18:28:17.602Z,6.90
2023-04-23T18:30:44.491Z,5.75
2023-04-23T18:33:26.634Z,6.60
2023-04-23T18:35:56.536Z,7.63
2023-04-23T18:38:25.952Z,5.38
2023-04-23T18:40:52.631Z,5.20
2023-04-23T18:43:19.647Z,4.32
2023-04-23T18:45:46.480Z,5.25
2023-04-23T18:48:43.884Z,5.20
2023-04-23T18:51:15.164Z,4.13
2023-04-23T18:53:41.838Z,3.40
2023-04-23T18:56:08.571Z,4.75
2023-04-23T18:58:35.346Z,5.13
2023-04-23T19:01:02.063Z,5.03
2023-04-23T19:03:29.919Z,4.30
2023-04-23T19:05:57.181Z,3.78
2023-04-23T19:08:28.605Z,4.88
2023-04-23T19:10:56.773Z,3.50
2023-04-23T19:13:23.669Z,4.60
2023-04-23T19:15:51.718Z,4.95
2023-04-23T19:18:19.046Z,3.72
2023-04-23T19:20:46.037Z,4.30
2023-04-23T19:23:12.737Z,4.30
2023-04-23T19:25:39.501Z,4.45
2023-04-23T19:28:06.428Z,4.43
2023-04-23T19:30:33.053Z,5.90
2023-04-23T19:33:00.421Z,6.10
2023-04-23T19:35:27.203Z,7.05
2023-04-23T19:37:53.810Z,6.03
2023-04-23T19:40:20.818Z,5.60
2023-04-23T19:42:48.088Z,8.45
2023-04-23T19:45:16.620Z,7.28
2023-04-23T19:47:43.479Z,6.15
2023-04-23T19:50:10.666Z,7.30
2023-04-23T19:52:37.349Z,9.30
2023-04-23T19:55:04.614Z,6.22
2023-04-23T19:57:31.473Z,6.38
2023-04-23T19:59:58.030Z,6.20
2023-04-23T20:02:24.884Z,5.97
2023-04-23T20:04:51.589Z,6.50
2023-04-23T20:07:18.443Z,6.22
2023-04-23T20:09:45.553Z,8.10
2023-04-23T20:12:14.140Z,6.15
2023-04-23T20:14:40.964Z,5.57
2023-04-23T20:17:08.424Z,7.75
2023-04-23T20:19:35.691Z,7.47
2023-04-23T20:22:02.612Z,8.18
2023-04-23T20:24:29.325Z,8.30
2023-04-23T20:26:56.658Z,7.45
2023-04-23T20:29:23.300Z,8.00
2023-04-23T20:31:50.194Z,6.43
2023-04-23T20:34:17.294Z,4.53
2023-04-23T20:36:47.335Z,6.55
2023-04-23T20:39:14.666Z,4.68
2023-04-23T20:41:41.512Z,5.05
2023-04-23T20:44:09.151Z,6.32
2023-04-23T20:46:37.101Z,4.60
2023-04-23T20:49:04.259Z,4.78
2023-04-23T20:51:35.333Z,4.88
2023-04-23T20:54:02.444Z,4.57
2023-04-23T20:56:30.112Z,5.65
2023-04-23T20:59:00.572Z,4.45
2023-04-23T21:01:28.284Z,4.93
2023-04-23T21:03:55.002Z,4.55
2023-04-23T21:06:22.411Z,5.68
2023-04-23T21:08:49.502Z,5.57
2023-04-23T21:11:18.796Z,5.45
2023-04-23T21:13:46.425Z,5.22
2023-04-23T21:16:13.276Z,5.38
2023-04-23T21:18:40.754Z,5.40
2023-04-23T21:21:08.090Z,4.82
2023-04-23T21:23:36.500Z,5.47
2023-04-23T21:26:03.659Z,6.07
2023-04-23T21:28:31.516Z,5.55
2023-04-23T21:31:07.211Z,5.05
2023-04-23T21:33:33.805Z,6.22
2023-04-23T21:36:00.563Z,5.18
2023-04-23T21:38:27.444Z,4.78
2023-04-23T21:40:54.150Z,5.00
2023-04-23T21:43:21.278Z,4.97
2023-04-23T21:45:48.181Z,4.70
2023-04-23T21:48:15.033Z,4.55
2023-04-23T21:50:41.958Z,5.43
2023-04-23T21:53:09.000Z,5.22
2023-04-23T21:55:36.099Z,4.97
2023-04-23T21:58:16.697Z,4.90
2023-04-23T22:00:45.232Z,5.70
2023-04-23T22:03:12.616Z,4.32
2023-04-23T22:05:49.520Z,4.43
2023-04-23T22:08:17.235Z,6.38
2023-04-23T22:10:44.420Z,5.43
2023-04-23T22:13:11.465Z,4.80
2023-04-23T22:15:38.509Z,4.75
2023-04-23T22:18:05.829Z,5.38
2023-04-23T22:20:32.916Z,5.70
2023-04-23T22:22:59.764Z,4.80
2023-04-23T22:25:26.383Z,5.75
2023-04-23T22:27:54.178Z,5.22
2023-04-23T22:30:21.121Z,6.57
2023-04-23T22:32:47.757Z,4.75
2023-04-23T22:35:14.611Z,4.60
2023-04-23T22:37:41.667Z,5.30
2023-04-23T22:40:09.631Z,7.60
2023-04-23T22:42:37.781Z,5.88
2023-04-23T22:45:04.931Z,4.85
2023-04-23T22:47:31.953Z,5.28
2023-04-23T22:49:59.239Z,5.70
2023-04-23T22:52:27.010Z,5.60
2023-04-23T22:54:55.019Z,7.53
2023-04-23T22:57:30.510Z,7.05
2023-04-23T23:00:01.916Z,8.23
2023-04-23T23:02:28.629Z,5.75
2023-04-23T23:04:56.071Z,6.60
2023-04-23T23:07:22.919Z,5.97
2023-04-23T23:09:50.217Z,4.75
2023-04-23T23:12:17.103Z,4.63
2023-04-23T23:14:44.090Z,6.07
2023-04-23T23:17:10.664Z,6.03
2023-04-23T23:19:37.416Z,5.55
2023-04-23T23:22:04.311Z,5.18
2023-04-23T23:24:30.922Z,5.60
2023-04-23T23:26:57.867Z,6.30
2023-04-23T23:29:24.547Z,5.05
2023-04-23T23:31:51.697Z,5.78
2023-04-23T23:34:18.507Z,5.85
2023-04-23T23:36:45.398Z,4.80
2023-04-23T23:39:13.333Z,4.35
2023-04-23T23:41:40.136Z,4.43
2023-04-23T23:44:06.997Z,4.82
2023-04-23T23:46:34.201Z,5.10
2023-04-23T23:49:01.322Z,4.40
2023-04-23T23:51:29.045Z,5.00
2023-04-23T23:53:55.749Z,5.20
2023-04-23T23:56:22.497Z,4.40
2023-04-23T23:58:49.151Z,5.00
